Time;durP1;ratioP1;P1;durP2;ratioP2;P2;SDS_P1;SDS_P2;PMS_P1;PMS_P2;Temp;Humidity;BMP_temperature;BMP_pressure;BME280_temperature;BME280_humidity;BME280_pressure;Samples;Min_cycle;Max_cycle;Signal;HPM_P1;HPM_P2
2021/07/27 00:01:24;;;;;;;32.33;14.95;;;;;16.20;99934.00;;;;5035614;28;20509;-74
2021/07/27 00:03:50;;;;;;;26.75;14.80;;;;;16.20;99946.00;;;;5037861;28;20048;-73
2021/07/27 00:06:17;;;;;;;26.00;15.82;;;;;16.20;99909.00;;;;5039949;28;20060;-72
2021/07/27 00:08:44;;;;;;;25.20;18.10;;;;;16.20;99933.00;;;;5039505;28;20028;-71
2021/07/27 00:11:11;;;;;;;29.98;19.40;;;;;16.20;99955.00;;;;5038854;28;20041;-73
2021/07/27 00:13:39;;;;;;;30.27;18.88;;;;;16.20;99922.00;;;;5038755;28;20499;-73
2021/07/27 00:16:07;;;;;;;31.65;16.40;;;;;16.20;99920.00;;;;5039101;28;20037;-73
2021/07/27 00:18:34;;;;;;;26.00;17.52;;;;;16.10;99931.00;;;;5040928;28;20407;-73
2021/07/27 00:21:02;;;;;;;25.27;17.63;;;;;16.10;99956.00;;;;5049696;28;20507;-73
2021/07/27 00:23:28;;;;;;;28.60;18.13;;;;;16.10;99962.00;;;;5049982;28;20791;-73
2021/07/27 00:25:55;;;;;;;25.38;15.77;;;;;16.10;99966.00;;;;5050047;28;20123;-73
2021/07/27 00:28:22;;;;;;;37.45;17.83;;;;;16.00;99971.00;;;;5049626;28;20466;-72
2021/07/27 00:30:49;;;;;;;37.10;18.13;;;;;16.00;99974.00;;;;5049564;28;20029;-75
2021/07/27 00:33:16;;;;;;;23.45;15.98;;;;;16.00;99932.00;;;;5050582;28;20451;-73
2021/07/27 00:35:44;;;;;;;31.55;17.90;;;;;16.00;99967.00;;;;5049523;28;20033;-73
2021/07/27 00:38:23;;;;;;;41.55;19.20;;;;;16.00;99984.00;;;;5048915;28;20063;-73
2021/07/27 00:40:50;;;;;;;23.30;15.65;;;;;16.10;99984.00;;;;5048729;28;20028;-72
2021/07/27 00:43:22;;;;;;;30.65;17.75;;;;;16.10;99977.00;;;;5049501;28;20128;-73
2021/07/27 00:45:48;;;;;;;68.47;18.27;;;;;16.10;99952.00;;;;5049630;28;20029;-73
2021/07/27 00:48:15;;;;;;;22.60;14.70;;;;;16.00;99954.00;;;;5049875;28;20102;-73
2021/07/27 00:50:42;;;;;;;28.83;13.60;;;;;16.00;99957.00;;;;5048484;28;20028;-73
2021/07/27 00:53:09;;;;;;;25.23;13.32;;;;;16.00;100000.00;;;;5049121;28;20028;-73
2021/07/27 00:55:36;;;;;;;23.27;15.43;;;;;16.00;100028.00;;;;5047908;28;20043;-73
2021/07/27 00:58:04;;;;;;;27.95;14.07;;;;;16.00;100021.00;;;;5049673;28;20041;-73
2021/07/27 01:00:30;;;;;;;40.67;15.43;;;;;16.00;99996.00;;;;5049264;28;20033;-73
2021/07/27 01:02:57;;;;;;;30.73;15.20;;;;;16.10;99981.00;;;;5049191;28;20500;-73
2021/07/27 01:05:28;;;;;;;35.72;16.45;;;;;16.10;99996.00;;;;5049218;28;20138;-73
2021/07/27 01:07:59;;;;;;;29.10;16.25;;;;;16.10;99992.00;;;;5049348;28;20032;-73
2021/07/27 01:10:26;;;;;;;18.83;12.95;;;;;16.10;99998.00;;;;5048848;28;20037;-72
2021/07/27 01:12:53;;;;;;;26.38;14.35;;;;;16.20;100013.00;;;;5048805;28;20029;-72
2021/07/27 01:15:20;;;;;;;30.63;16.67;;;;;16.30;100021.00;;;;5049346;28;20039;-73
2021/07/27 01:17:46;;;;;;;29.35;15.23;;;;;16.30;100020.00;;;;5049252;28;20032;-72
2021/07/27 01:42:08;;;;;;;29.85;14.00;;;;;16.40;100053.00;;;;5048436;28;20407;-72
2021/07/27 01:44:42;;;;;;;24.90;14.80;;;;;16.40;100054.00;;;;5048860;28;20053;-72
2021/07/27 01:47:09;;;;;;;31.55;15.95;;;;;16.40;100048.00;;;;5047280;28;20442;-73
2021/07/27 01:49:36;;;;;;;25.98;14.55;;;;;16.40;100025.00;;;;5048335;28;20037;-73
2021/07/27 01:52:03;;;;;;;24.73;13.70;;;;;16.30;100016.00;;;;5049041;28;20040;-73
2021/07/27 01:54:45;;;;;;;33.22;15.63;;;;;16.30;100008.00;;;;5048256;28;20040;-73
2021/07/27 01:57:11;;;;;;;;;;;;;16.30;100057.00;;;;5048639;28;20491;-72
2021/07/27 01:59:39;;;;;;;25.08;15.07;;;;;16.30;100018.00;;;;5048054;28;19956;-73
2021/07/27 02:02:07;;;;;;;18.90;12.10;;;;;16.30;100010.00;;;;5047968;28;20040;-72
2021/07/27 02:04:34;;;;;;;21.42;13.20;;;;;16.30;100011.00;;;;5047929;28;20044;-72
2021/07/27 02:07:00;;;;;;;27.65;14.55;;;;;16.30;100047.00;;;;5047059;28;20097;-72
2021/07/27 02:09:33;;;;;;;26.92;14.60;;;;;16.40;100080.00;;;;5047692;28;20124;-73
2021/07/27 02:12:01;;;;;;;18.13;13.93;;;;;16.50;100100.00;;;;5048090;28;20082;-72
2021/07/27 02:15:03;;;;;;;21.80;14.45;;;;;16.50;100120.00;;;;5047722;28;20036;-72
2021/07/27 02:17:15;;;;;;;22.95;13.85;;;;;16.50;100105.00;;;;5047749;28;20069;-72
2021/07/27 02:19:42;;;;;;;21.00;14.10;;;;;16.50;100121.00;;;;5045837;28;20048;-72
2021/07/27 02:22:08;;;;;;;25.05;14.48;;;;;16.50;100138.00;;;;5047223;28;20036;-73
2021/07/27 02:24:36;;;;;;;24.65;14.70;;;;;16.50;100140.00;;;;5047671;28;20040;-72
2021/07/27 02:27:02;;;;;;;21.45;14.52;;;;;16.40;100154.00;;;;5047865;28;20020;-73
2021/07/27 02:29:29;;;;;;;24.98;17.50;;;;;16.50;100143.00;;;;5047848;28;20029;-72
2021/07/27 02:31:56;;;;;;;26.40;16.15;;;;;16.50;100145.00;;;;5047405;28;20075;-73
2021/07/27 02:34:22;;;;;;;24.50;13.60;;;;;16.50;100159.00;;;;5047850;28;20331;-72
2021/07/27 02:36:49;;;;;;;24.15;14.00;;;;;16.50;100154.00;;;;5047009;28;20032;-73
2021/07/27 02:39:15;;;;;;;23.52;13.85;;;;;16.50;100157.00;;;;5047344;28;20055;-73
2021/07/27 02:41:42;;;;;;;27.42;15.15;;;;;16.50;100167.00;;;;5047588;28;20526;-72
2021/07/27 02:44:08;;;;;;;27.25;16.30;;;;;16.50;100147.00;;;;5047697;28;20452;-72
2021/07/27 02:46:35;;;;;;;28.20;17.30;;;;;16.50;100138.00;;;;5047290;28;20036;-73
2021/07/27 02:49:03;;;;;;;34.53;23.05;;;;;16.50;100147.00;;;;5046873;28;20024;-72
2021/07/27 02:51:30;;;;;;;32.17;21.08;;;;;16.50;100121.00;;;;5047444;28;20071;-71
2021/07/27 02:53:56;;;;;;;67.28;21.65;;;;;16.40;100080.00;;;;5047364;28;20032;-72
2021/07/27 02:56:23;;;;;;;44.80;24.77;;;;;16.40;100076.00;;;;5047287;28;20108;-72
2021/07/27 02:58:50;;;;;;;42.30;25.25;;;;;16.40;100136.00;;;;5047081;28;20557;-72
2021/07/27 03:01:16;;;;;;;46.97;29.20;;;;;16.40;100150.00;;;;5046542;28;20551;-73
2021/07/27 03:03:43;;;;;;;50.75;29.95;;;;;16.50;100176.00;;;;5046959;28;20052;-72
2021/07/27 03:06:12;;;;;;;51.08;30.10;;;;;16.50;100211.00;;;;5047646;28;20037;-72
2021/07/27 03:11:15;;;;;;;48.97;28.60;;;;;16.50;100090.00;;;;5046686;28;20145;-72
2021/07/27 03:13:43;;;;;;;62.88;34.47;;;;;16.50;100140.00;;;;5046688;28;20113;-74
2021/07/27 03:16:18;;;;;;;74.25;42.30;;;;;16.50;100144.00;;;;5046605;28;20120;-74
2021/07/27 03:18:46;;;;;;;77.50;42.90;;;;;16.50;100182.00;;;;5046740;28;20553;-73
2021/07/27 03:21:14;;;;;;;69.40;36.15;;;;;16.40;100099.00;;;;5046685;28;20028;-73
2021/07/27 03:23:41;;;;;;;56.53;30.83;;;;;16.10;100116.00;;;;5046639;28;20029;-76
2021/07/27 03:26:07;;;;;;;21.80;15.82;;;;;15.50;100117.00;;;;5047849;28;20033;-76
2021/07/27 03:28:34;;;;;;;15.75;10.45;;;;;15.00;100104.00;;;;5049240;28;20108;-75
2021/07/27 03:31:00;;;;;;;12.82;5.55;;;;;14.50;100148.00;;;;5049375;28;20029;-73
2021/07/27 03:33:27;;;;;;;13.15;4.20;;;;;14.20;100147.00;;;;5047787;28;20491;-73
2021/07/27 03:35:54;;;;;;;4.07;2.00;;;;;13.90;100189.00;;;;5048277;28;20502;-71
2021/07/27 03:38:20;;;;;;;6.57;1.73;;;;;13.60;100197.00;;;;5046359;28;20500;-75
2021/07/27 03:40:47;;;;;;;8.63;1.58;;;;;13.40;100199.00;;;;5046614;28;20051;-74
2021/07/27 03:43:13;;;;;;;3.25;1.50;;;;;13.30;100207.00;;;;5047634;28;20095;-74
2021/07/27 03:45:40;;;;;;;5.05;2.15;;;;;13.20;100247.00;;;;5047166;28;20029;-76
2021/07/27 03:48:07;;;;;;;4.25;2.70;;;;;13.20;100205.00;;;;5047812;28;20383;-77
2021/07/27 03:50:33;;;;;;;3.10;2.30;;;;;13.10;100196.00;;;;5047361;28;20074;-75
2021/07/27 03:53:00;;;;;;;5.78;2.22;;;;;13.10;100160.00;;;;5046730;28;20551;-75
2021/07/27 03:55:26;;;;;;;8.60;2.58;;;;;13.00;100191.00;;;;5046924;28;21123;-76
2021/07/27 03:57:53;;;;;;;3.95;1.98;;;;;12.90;100181.00;;;;5047000;28;20086;-75
2021/07/27 04:00:22;;;;;;;6.75;1.98;;;;;12.80;100176.00;;;;5047400;28;20029;-74
2021/07/27 04:02:49;;;;;;;2.38;2.15;;;;;12.70;100180.00;;;;5047494;28;20842;-75
2021/07/27 04:05:15;;;;;;;4.20;1.95;;;;;12.60;100176.00;;;;5046345;28;20563;-74
2021/07/27 04:07:42;;;;;;;3.00;1.90;;;;;12.50;100167.00;;;;5047135;28;20028;-75
2021/07/27 04:10:09;;;;;;;3.42;2.20;;;;;12.50;100162.00;;;;5047078;28;20033;-75
2021/07/27 04:12:36;;;;;;;2.45;1.60;;;;;12.40;100213.00;;;;5048299;28;20029;-75
2021/07/27 04:15:02;;;;;;;2.22;1.77;;;;;12.40;100217.00;;;;5047944;28;20434;-75
2021/07/27 04:17:29;;;;;;;1.88;1.70;;;;;12.40;100220.00;;;;5046897;28;20077;-75
2021/07/27 04:19:56;;;;;;;3.30;1.67;;;;;12.40;100210.00;;;;5046713;28;20025;-73
2021/07/27 04:22:22;;;;;;;1.45;1.35;;;;;12.40;100270.00;;;;5046563;28;20471;-74
2021/07/27 04:24:49;;;;;;;1.65;1.02;;;;;12.40;100260.00;;;;5044496;28;20488;-76
2021/07/27 04:27:17;;;;;;;1.10;0.80;;;;;12.40;100264.00;;;;5046252;28;20033;-74
2021/07/27 04:29:45;;;;;;;1.58;1.10;;;;;12.30;100288.00;;;;5046317;28;20079;-74
2021/07/27 04:32:12;;;;;;;1.35;0.90;;;;;12.30;100233.00;;;;5046413;28;20086;-73
2021/07/27 04:34:38;;;;;;;1.02;0.93;;;;;12.20;100170.00;;;;5046553;28;20392;-74
2021/07/27 04:37:05;;;;;;;1.25;0.90;;;;;12.20;100187.00;;;;5045625;28;20488;-74
2021/07/27 04:39:31;;;;;;;1.10;1.00;;;;;12.20;100198.00;;;;5046216;28;20029;-74
2021/07/27 04:41:58;;;;;;;1.50;1.08;;;;;12.10;100207.00;;;;5046619;28;20037;-73
2021/07/27 04:44:24;;;;;;;8.27;1.00;;;;;12.10;100171.00;;;;5045780;28;20037;-73
2021/07/27 04:46:51;;;;;;;1.10;1.00;;;;;12.10;100157.00;;;;5050127;28;20032;-75
2021/07/27 04:49:18;;;;;;;3.30;1.10;;;;;12.10;100183.00;;;;5049985;28;20760;-73
2021/07/27 04:51:44;;;;;;;1.10;1.00;;;;;12.10;100184.00;;;;5049481;28;20028;-74
2021/07/27 04:54:26;;;;;;;1.52;0.85;;;;;12.10;100177.00;;;;5049963;28;20024;-75
2021/07/27 04:56:53;;;;;;;1.77;0.90;;;;;12.00;100181.00;;;;5049157;28;20028;-75
2021/07/27 04:59:20;;;;;;;1.00;0.70;;;;;12.00;100201.00;;;;5049737;28;20094;-76
2021/07/27 05:01:46;;;;;;;0.80;0.80;;;;;12.00;100225.00;;;;5049617;28;20040;-75
2021/07/27 05:04:13;;;;;;;2.38;0.60;;;;;12.00;100222.00;;;;5049293;28;20415;-75
2021/07/27 05:06:39;;;;;;;0.60;0.60;;;;;12.00;100211.00;;;;5049693;28;20033;-75
2021/07/27 05:09:06;;;;;;;1.50;0.80;;;;;12.00;100230.00;;;;5049642;28;20029;-75
2021/07/27 05:11:32;;;;;;;0.82;0.70;;;;;12.00;100238.00;;;;5050149;28;20048;-75
2021/07/27 05:13:59;;;;;;;0.82;0.82;;;;;12.00;100248.00;;;;5049331;28;20029;-75
2021/07/27 05:16:25;;;;;;;0.85;0.77;;;;;12.00;100257.00;;;;5048950;28;20028;-76
2021/07/27 05:18:55;;;;;;;1.77;0.90;;;;;12.00;100259.00;;;;5049399;28;20036;-74
2021/07/27 05:21:21;;;;;;;1.77;0.77;;;;;12.00;100236.00;;;;5049111;28;20094;-74
2021/07/27 05:23:48;;;;;;;0.82;0.82;;;;;12.00;100239.00;;;;5049658;28;20025;-74
2021/07/27 05:26:14;;;;;;;0.90;0.75;;;;;12.10;100266.00;;;;5048759;28;20070;-73
2021/07/27 05:28:41;;;;;;;1.33;0.75;;;;;12.10;100267.00;;;;5049013;28;20108;-74
2021/07/27 05:51:44;;;;;;;1.08;0.70;;;;;12.00;100289.00;;;;5104586;27;20430;-73
2021/07/27 05:54:10;;;;;;;0.80;0.60;;;;;12.00;100292.00;;;;5104949;28;20119;-73
2021/07/27 05:56:37;;;;;;;7.07;0.80;;;;;12.00;100269.00;;;;5104553;28;20062;-74
2021/07/27 05:59:03;;;;;;;1.15;0.80;;;;;11.90;100276.00;;;;5104215;28;20031;-73
2021/07/27 06:01:30;;;;;;;1.00;0.90;;;;;11.90;100275.00;;;;5104126;28;20089;-73
2021/07/27 06:03:56;;;;;;;1.92;0.95;;;;;11.90;100256.00;;;;5104988;28;20035;-74
2021/07/27 06:06:23;;;;;;;0.70;0.70;;;;;11.90;100273.00;;;;5104562;28;20034;-75
2021/07/27 06:08:50;;;;;;;1.88;0.80;;;;;11.90;100253.00;;;;5104503;28;20063;-73
2021/07/27 06:11:16;;;;;;;0.85;0.77;;;;;11.90;100274.00;;;;5104159;28;20038;-74
2021/07/27 06:13:43;;;;;;;0.80;0.70;;;;;11.90;100270.00;;;;5104513;28;20020;-73
2021/07/27 06:16:09;;;;;;;0.63;0.63;;;;;11.80;100298.00;;;;5104059;28;20139;-74
2021/07/27 06:18:36;;;;;;;0.90;0.90;;;;;11.90;100302.00;;;;5104106;28;20024;-75
2021/07/27 06:21:04;;;;;;;0.60;0.60;;;;;11.90;100279.00;;;;5104099;28;20055;-72
2021/07/27 06:23:30;;;;;;;0.60;0.60;;;;;11.80;100306.00;;;;5104323;28;20028;-74
2021/07/27 06:25:57;;;;;;;0.98;0.70;;;;;11.80;100310.00;;;;5104298;28;20034;-72
2021/07/27 06:28:24;;;;;;;0.60;0.60;;;;;11.80;100340.00;;;;5103913;28;20103;-74
2021/07/27 06:30:50;;;;;;;4.72;0.82;;;;;11.80;100346.00;;;;5104272;28;20028;-74
2021/07/27 06:33:17;;;;;;;0.57;0.55;;;;;11.80;100336.00;;;;5120869;28;20057;-72
2021/07/27 06:35:43;;;;;;;0.40;0.40;;;;;11.80;100340.00;;;;5124268;28;20062;-73
2021/07/27 06:38:10;;;;;;;0.45;0.30;;;;;11.70;100337.00;;;;5124417;28;20035;-72
2021/07/27 06:40:36;;;;;;;0.40;0.40;;;;;11.60;100338.00;;;;5124367;28;20106;-74
2021/07/27 06:43:03;;;;;;;0.85;0.40;;;;;11.60;100380.00;;;;5123919;28;20577;-74
2021/07/27 06:45:30;;;;;;;0.32;0.32;;;;;11.60;100372.00;;;;5124128;28;20570;-73
2021/07/27 06:47:56;;;;;;;1.80;0.40;;;;;11.70;100395.00;;;;5124061;28;20037;-74
2021/07/27 06:50:25;;;;;;;0.38;0.38;;;;;11.70;100397.00;;;;5123778;28;20583;-72
2021/07/27 06:52:52;;;;;;;0.35;0.30;;;;;11.70;100390.00;;;;5124099;28;20035;-74
2021/07/27 06:55:19;;;;;;;1.65;0.57;;;;;11.60;100388.00;;;;5123571;28;20027;-73
2021/07/27 06:57:47;;;;;;;0.20;0.20;;;;;11.50;100389.00;;;;5123760;28;20568;-73
2021/07/27 07:00:14;;;;;;;3.42;0.40;;;;;11.40;100383.00;;;;5124085;28;20504;-73
2021/07/27 07:02:40;;;;;;;1.35;0.30;;;;;11.40;100379.00;;;;5112480;28;20023;-75
2021/07/27 07:05:07;;;;;;;0.63;0.30;;;;;11.40;100393.00;;;;5110254;28;20032;-71
2021/07/27 07:07:35;;;;;;;0.22;0.22;;;;;11.40;100405.00;;;;5110077;28;20134;-72
2021/07/27 07:10:03;;;;;;;0.30;0.30;;;;;11.40;100407.00;;;;5110020;28;20425;-73
2021/07/27 07:12:29;;;;;;;2.42;0.60;;;;;11.50;100395.00;;;;5109925;28;20077;-73
2021/07/27 07:14:56;;;;;;;0.38;0.38;;;;;11.40;100393.00;;;;5109923;28;20023;-72
2021/07/27 07:17:24;;;;;;;0.40;0.40;;;;;11.40;100398.00;;;;5109839;28;20033;-73
2021/07/27 07:19:51;;;;;;;0.30;0.30;;;;;11.30;100422.00;;;;5109790;28;20497;-72
2021/07/27 07:22:19;;;;;;;0.30;0.30;;;;;11.20;100402.00;;;;5109780;28;20563;-76
2021/07/27 07:24:49;;;;;;;0.20;0.20;;;;;11.10;100392.00;;;;5109791;28;20015;-75
2021/07/27 07:27:15;;;;;;;0.28;0.28;;;;;11.10;100417.00;;;;5109917;28;20027;-71
2021/07/27 07:29:42;;;;;;;0.30;0.30;;;;;11.10;100407.00;;;;5109973;28;20038;-72
2021/07/27 07:32:09;;;;;;;0.43;0.40;;;;;11.10;100395.00;;;;5109510;28;20037;-76
2021/07/27 07:34:36;;;;;;;0.68;0.40;;;;;11.10;100384.00;;;;5109748;28;20464;-71
2021/07/27 07:37:05;;;;;;;0.45;0.45;;;;;11.10;100409.00;;;;5109237;28;20024;-72
2021/07/27 07:39:32;;;;;;;0.40;0.40;;;;;11.00;100386.00;;;;5109439;28;20464;-75
2021/07/27 07:42:02;;;;;;;0.30;0.30;;;;;10.90;100390.00;;;;5109867;28;20390;-74
2021/07/27 07:44:29;;;;;;;0.30;0.30;;;;;10.90;100383.00;;;;5110151;28;20023;-74
2021/07/27 07:46:55;;;;;;;0.20;0.20;;;;;10.90;100397.00;;;;5109672;28;20030;-72
2021/07/27 07:49:22;;;;;;;0.55;0.40;;;;;10.80;100389.00;;;;5108706;28;20489;-75
2021/07/27 07:51:50;;;;;;;0.50;0.40;;;;;10.80;100405.00;;;;5109596;28;20093;-73
2021/07/27 07:54:18;;;;;;;0.70;0.50;;;;;10.80;100402.00;;;;5109511;28;20078;-73
2021/07/27 07:56:45;;;;;;;0.40;0.40;;;;;10.70;100395.00;;;;5109107;28;20390;-73
2021/07/27 07:59:12;;;;;;;0.40;0.40;;;;;10.80;100412.00;;;;5109094;28;20561;-75
2021/07/27 08:01:38;;;;;;;0.47;0.47;;;;;10.70;100400.00;;;;5108497;28;20034;-72
2021/07/27 08:04:05;;;;;;;0.73;0.70;;;;;10.80;100418.00;;;;5109187;28;20096;-72
2021/07/27 08:06:32;;;;;;;1.77;1.10;;;;;10.80;100437.00;;;;5108840;28;20061;-72
2021/07/27 08:08:58;;;;;;;1.83;1.10;;;;;10.90;100423.00;;;;5109153;28;20076;-73
2021/07/27 08:11:25;;;;;;;1.23;1.10;;;;;10.90;100429.00;;;;5108328;28;20038;-73
2021/07/27 08:13:55;;;;;;;2.05;1.50;;;;;10.90;100440.00;;;;5107537;28;20020;-72
2021/07/27 08:16:21;;;;;;;8.20;1.70;;;;;11.00;100438.00;;;;5109045;28;20053;-73
2021/07/27 08:18:48;;;;;;;2.40;1.80;;;;;10.90;100474.00;;;;5108783;28;20507;-73
2021/07/27 08:21:15;;;;;;;3.13;1.90;;;;;10.90;100480.00;;;;5108069;28;20066;-72
2021/07/27 08:23:47;;;;;;;3.50;2.38;;;;;11.00;100494.00;;;;5108758;28;20023;-72
2021/07/27 08:26:14;;;;;;;5.43;3.42;;;;;11.00;100530.00;;;;5108829;28;20471;-72
2021/07/27 08:28:42;;;;;;;6.20;3.75;;;;;11.10;100537.00;;;;5108698;28;20080;-73
2021/07/27 08:31:09;;;;;;;4.68;2.95;;;;;11.10;100509.00;;;;5108466;28;20114;-72
2021/07/27 08:33:36;;;;;;;3.45;2.70;;;;;11.00;100510.00;;;;5107940;28;20468;-71
2021/07/27 08:36:03;;;;;;;3.30;2.53;;;;;11.00;100529.00;;;;5108699;28;20435;-72
2021/07/27 08:38:30;;;;;;;4.07;2.58;;;;;11.10;100536.00;;;;5109139;28;20069;-73
2021/07/27 08:40:58;;;;;;;5.65;2.92;;;;;11.10;100538.00;;;;5108445;28;20039;-73
2021/07/27 08:43:25;;;;;;;1.67;1.35;;;;;11.10;100495.00;;;;5108238;28;20032;-73
2021/07/27 08:45:53;;;;;;;1.52;1.10;;;;;11.10;100499.00;;;;5108364;28;20029;-73
2021/07/27 08:48:19;;;;;;;1.42;0.98;;;;;11.00;100506.00;;;;5108053;28;20027;-72
2021/07/27 08:50:47;;;;;;;1.20;1.10;;;;;11.00;100538.00;;;;5107958;28;20128;-74
2021/07/27 08:53:13;;;;;;;1.42;1.10;;;;;11.10;100546.00;;;;5108360;28;20031;-72
2021/07/27 08:55:40;;;;;;;3.55;1.08;;;;;11.10;100554.00;;;;5107912;28;20482;-72
2021/07/27 08:58:06;;;;;;;1.67;1.10;;;;;11.00;100557.00;;;;5107875;28;20056;-72
2021/07/27 09:00:34;;;;;;;1.50;1.27;;;;;11.10;100550.00;;;;5107817;28;20120;-73
2021/07/27 09:03:18;;;;;;;0.77;0.77;;;;;11.10;100568.00;;;;5108559;28;20020;-72
2021/07/27 09:05:46;;;;;;;2.30;0.95;;;;;11.10;100543.00;;;;5107855;28;20047;-72
2021/07/27 09:08:15;;;;;;;1.00;0.73;;;;;11.00;100573.00;;;;5107457;28;20020;-71
2021/07/27 09:10:44;;;;;;;0.77;0.63;;;;;11.00;100567.00;;;;5107037;28;20044;-72
2021/07/27 09:13:13;;;;;;;1.45;0.75;;;;;11.00;100552.00;;;;5107262;28;20040;-72
2021/07/27 09:15:42;;;;;;;2.25;0.57;;;;;11.10;100559.00;;;;5107957;28;20481;-73
2021/07/27 09:18:19;;;;;;;0.60;0.60;;;;;11.00;100550.00;;;;5107901;28;20485;-72
2021/07/27 09:20:49;;;;;;;1.48;0.77;;;;;10.90;100556.00;;;;5107453;28;20491;-72
2021/07/27 09:23:23;;;;;;;2.95;0.80;;;;;11.00;100566.00;;;;5107714;28;20416;-73
2021/07/27 09:25:54;;;;;;;1.40;0.70;;;;;11.00;100552.00;;;;5107333;28;20028;-72
2021/07/27 09:28:21;;;;;;;2.03;0.73;;;;;11.00;100563.00;;;;5107654;28;20106;-73
2021/07/27 09:30:49;;;;;;;1.80;0.60;;;;;11.00;100581.00;;;;5089251;28;20592;-73
2021/07/27 09:33:17;;;;;;;2.40;0.70;;;;;11.00;100621.00;;;;5107229;28;20466;-73
2021/07/27 09:35:45;;;;;;;2.80;1.00;;;;;11.00;100618.00;;;;5107358;28;20026;-71
2021/07/27 09:38:18;;;;;;;6.13;1.05;;;;;11.00;100605.00;;;;5107166;28;20031;-73
2021/07/27 09:40:53;;;;;;;0.85;0.75;;;;;11.00;100615.00;;;;5107498;28;20028;-73
2021/07/27 09:43:22;;;;;;;1.10;0.88;;;;;11.00;100606.00;;;;5107304;28;20577;-72
2021/07/27 09:45:54;;;;;;;2.42;0.90;;;;;10.90;100614.00;;;;5107531;28;20080;-72
2021/07/27 09:48:21;;;;;;;0.73;0.73;;;;;10.80;100609.00;;;;5107553;28;20090;-73
2021/07/27 09:50:52;;;;;;;1.92;1.20;;;;;10.80;100629.00;;;;5105993;28;20043;-74
2021/07/27 09:53:19;;;;;;;4.80;1.00;;;;;10.80;100617.00;;;;5088395;28;20055;-72
2021/07/27 09:55:46;;;;;;;1.80;1.30;;;;;10.80;100598.00;;;;5106301;28;20015;-73
2021/07/27 09:58:14;;;;;;;1.77;1.10;;;;;10.80;100612.00;;;;5107100;28;20033;-72
2021/07/27 10:01:01;;;;;;;1.45;1.27;;;;;10.80;100611.00;;;;5106923;28;20055;-73
2021/07/27 10:03:49;;;;;;;1.88;1.50;;;;;10.80;100604.00;;;;5107334;28;20140;-74
2021/07/27 10:06:36;;;;;;;1.80;1.33;;;;;10.80;100620.00;;;;5106797;28;20482;-73
2021/07/27 10:09:04;;;;;;;1.95;1.58;;;;;10.90;100619.00;;;;5107139;28;20027;-75
2021/07/27 10:11:42;;;;;;;2.83;1.60;;;;;10.90;100611.00;;;;5106552;28;20514;-72
2021/07/27 10:14:13;;;;;;;4.72;1.67;;;;;10.90;100629.00;;;;5107356;28;20027;-73
2021/07/27 10:16:40;;;;;;;3.40;1.90;;;;;11.00;100639.00;;;;5107043;28;21018;-73
2021/07/27 10:19:21;;;;;;;3.45;2.00;;;;;11.00;100609.00;;;;5106828;28;20512;-73
2021/07/27 10:22:00;;;;;;;3.10;2.23;;;;;11.00;100622.00;;;;5107112;28;20027;-72
2021/07/27 10:24:42;;;;;;;2.60;2.30;;;;;11.00;100661.00;;;;5106242;28;20024;-73
2021/07/27 10:27:21;;;;;;;3.33;2.85;;;;;11.00;100652.00;;;;5106833;28;20491;-72
2021/07/27 10:29:48;;;;;;;5.00;4.45;;;;;11.00;100658.00;;;;5105406;28;20031;-73
2021/07/27 10:32:17;;;;;;;5.78;3.00;;;;;11.10;100660.00;;;;5105764;28;20042;-74
2021/07/27 10:34:45;;;;;;;6.15;3.70;;;;;11.10;100669.00;;;;5106896;28;20561;-73
2021/07/27 10:37:13;;;;;;;3.33;3.03;;;;;11.10;100676.00;;;;5108689;28;20019;-73
2021/07/27 10:40:06;;;;;;;6.32;2.83;;;;;11.00;100677.00;;;;5110849;28;20490;-73
2021/07/27 10:42:40;;;;;;;5.50;3.38;;;;;11.00;100656.00;;;;5106268;28;20089;-72
2021/07/27 10:45:27;;;;;;;4.47;3.28;;;;;11.00;100654.00;;;;5110178;28;20020;-71
2021/07/27 10:47:54;;;;;;;4.13;3.33;;;;;11.10;100667.00;;;;5110230;28;20038;-72
2021/07/27 10:50:32;;;;;;;3.85;3.55;;;;;11.10;100666.00;;;;5109718;28;20790;-72
2021/07/27 10:53:17;;;;;;;3.53;3.00;;;;;11.10;100664.00;;;;5110563;28;20479;-73
2021/07/27 10:55:50;;;;;;;4.72;2.30;;;;;11.00;100691.00;;;;5111005;28;20027;-73
2021/07/27 10:58:18;;;;;;;2.40;2.20;;;;;11.00;100684.00;;;;5109539;28;20500;-71
2021/07/27 11:00:44;;;;;;;2.95;2.03;;;;;10.90;100683.00;;;;5092046;28;20089;-72
2021/07/27 11:03:11;;;;;;;2.55;2.35;;;;;11.00;100725.00;;;;5110282;28;20023;-73
2021/07/27 11:05:38;;;;;;;6.18;2.90;;;;;11.00;100715.00;;;;5110222;28;20027;-72
2021/07/27 11:08:05;;;;;;;5.07;2.85;;;;;11.10;100701.00;;;;5109799;28;20385;-72
2021/07/27 11:10:32;;;;;;;2.80;2.28;;;;;11.00;100692.00;;;;5110224;28;20128;-74
2021/07/27 11:12:59;;;;;;;3.22;2.65;;;;;11.00;100701.00;;;;5109772;28;20023;-73
2021/07/27 11:15:29;;;;;;;3.28;2.42;;;;;11.00;100703.00;;;;5109726;28;20128;-72
2021/07/27 11:18:05;;;;;;;4.60;3.05;;;;;10.90;100728.00;;;;5109634;28;20501;-73
2021/07/27 11:20:38;;;;;;;6.65;3.10;;;;;10.80;100716.00;;;;5109549;28;20149;-72
2021/07/27 11:23:09;;;;;;;5.70;3.47;;;;;10.90;100722.00;;;;5110328;28;20035;-73
2021/07/27 11:25:36;;;;;;;6.10;3.22;;;;;10.90;100699.00;;;;5109757;28;20558;-72
2021/07/27 11:28:16;;;;;;;6.65;3.03;;;;;10.80;100700.00;;;;5109991;28;20038;-72
2021/07/27 11:30:43;;;;;;;6.93;3.20;;;;;10.90;100686.00;;;;5109171;28;20039;-72
2021/07/27 11:33:19;;;;;;;6.68;4.47;;;;;11.00;100706.00;;;;5109198;28;20084;-73
2021/07/27 11:35:49;;;;;;;5.28;3.30;;;;;10.80;100707.00;;;;5109057;28;20020;-72
2021/07/27 11:38:32;;;;;;;5.35;2.95;;;;;10.90;100706.00;;;;5109296;28;20038;-72
2021/07/27 11:41:12;;;;;;;7.07;2.78;;;;;10.90;100715.00;;;;5109594;28;20039;-73
2021/07/27 11:43:43;;;;;;;16.23;3.40;;;;;11.00;100690.00;;;;5109899;28;20028;-73
2021/07/27 11:46:16;;;;;;;5.57;3.00;;;;;11.00;100670.00;;;;5109191;28;20030;-73
2021/07/27 11:48:44;;;;;;;3.70;2.47;;;;;11.00;100701.00;;;;5109112;28;20253;-73
2021/07/27 11:51:11;;;;;;;7.22;3.40;;;;;11.00;100698.00;;;;5091727;28;20105;-74
2021/07/27 11:53:40;;;;;;;7.72;2.78;;;;;11.00;100748.00;;;;5109192;28;20035;-73
2021/07/27 11:56:14;;;;;;;6.22;2.53;;;;;10.90;100751.00;;;;5109314;28;20031;-73
2021/07/27 11:58:42;;;;;;;8.32;2.72;;;;;10.90;100739.00;;;;5108959;28;20045;-73
2021/07/27 12:01:09;;;;;;;6.25;2.78;;;;;10.80;100727.00;;;;5109055;28;20039;-72
2021/07/27 12:03:35;;;;;;;7.10;2.70;;;;;10.80;100746.00;;;;5108996;28;20085;-72
2021/07/27 12:06:13;;;;;;;8.10;3.05;;;;;10.70;100752.00;;;;5108522;28;20020;-73
2021/07/27 12:08:40;;;;;;;15.25;3.55;;;;;10.70;100739.00;;;;5109044;28;20516;-73
2021/07/27 12:11:08;;;;;;;7.93;3.10;;;;;10.70;100760.00;;;;5108801;28;20478;-73
2021/07/27 12:13:34;;;;;;;10.60;3.63;;;;;10.70;100746.00;;;;5108903;28;20096;-73
2021/07/27 12:16:01;;;;;;;8.32;3.40;;;;;10.80;100753.00;;;;5108717;28;20035;-72
2021/07/27 12:18:28;;;;;;;8.98;3.83;;;;;10.80;100767.00;;;;5109192;28;20470;-73
2021/07/27 12:20:54;;;;;;;10.73;3.17;;;;;10.80;100769.00;;;;5108584;28;20131;-73
2021/07/27 12:23:21;;;;;;;10.63;4.30;;;;;10.60;100804.00;;;;5108777;28;20039;-72
2021/07/27 12:25:48;;;;;;;10.15;3.67;;;;;10.50;100819.00;;;;5108309;28;20485;-72
2021/07/27 12:28:15;;;;;;;10.65;3.97;;;;;10.50;100770.00;;;;5109095;28;20050;-72
2021/07/27 12:30:42;;;;;;;15.93;4.43;;;;;10.60;100777.00;;;;5108376;28;20028;-72
2021/07/27 12:33:11;;;;;;;7.88;3.22;;;;;10.50;100798.00;;;;5108074;28;20038;-73
2021/07/27 12:35:38;;;;;;;13.27;3.33;;;;;10.40;100794.00;;;;5108851;28;20031;-72
2021/07/27 12:38:07;;;;;;;14.32;3.58;;;;;10.50;100807.00;;;;5108531;28;20031;-73
2021/07/27 12:40:34;;;;;;;15.30;3.70;;;;;10.40;100774.00;;;;5108257;28;20117;-72
2021/07/27 12:43:01;;;;;;;17.67;4.18;;;;;10.30;100777.00;;;;5108401;28;20106;-72
2021/07/27 12:45:27;;;;;;;15.38;4.22;;;;;10.30;100788.00;;;;5108301;28;20054;-73
2021/07/27 12:47:55;;;;;;;20.95;4.32;;;;;10.40;100785.00;;;;5107673;28;20478;-72
2021/07/27 12:50:21;;;;;;;13.70;4.10;;;;;10.40;100779.00;;;;5107622;28;20498;-72
2021/07/27 12:52:48;;;;;;;14.30;4.88;;;;;10.40;100804.00;;;;5108087;28;20538;-72
2021/07/27 12:55:14;;;;;;;11.15;4.80;;;;;10.40;100801.00;;;;5107586;28;20031;-71